Terminal Aerodrome Forecast
Issued by NWS

Current Version | Previous Version | Text Only | Print | Product List | Glossary Off
Versions: 1 2 3 4 5 6 7 8 9 10 11 12 13 14 15 16 17 18 19 20 21 22 23 24 25 26 27 28 29 30 31 32

387
FTUS41 KILN 031500 AAB
TAFLUK
TAF AMD
KLUK 031500Z 0315/0412 03004KT P6SM SCT025 OVC040
      TEMPO 0315/0318 5SM -SHRA OVC025
     FM031800 32005KT P6SM BKN045
     FM040500 VRB03KT P6SM SCT040 SCT100
     FM040900 VRB03KT P6SM SCT040 BKN150=

USA.gov is the U.S. government's official web portal to all federal, state and local government web resources and services.